createdAt,value
2022-11-20T00:01:22.811Z,53.70
2022-11-20T00:03:52.463Z,54.02
2022-11-20T00:06:20.858Z,54.44
2022-11-20T00:08:49.073Z,54.82
2022-11-20T00:11:19.436Z,55.15
2022-11-20T00:13:49.056Z,55.47
2022-11-20T00:16:19.429Z,55.60
2022-11-20T00:18:47.619Z,55.87
2022-11-20T00:21:24.103Z,55.98
2022-11-20T00:23:55.319Z,56.00
2022-11-20T00:26:25.642Z,56.27
2022-11-20T00:28:55.645Z,56.50
2022-11-20T00:31:23.558Z,56.82
2022-11-20T00:33:51.660Z,56.74
2022-11-20T00:36:21.595Z,56.91
2022-11-20T00:38:53.119Z,57.14
2022-11-20T00:41:21.627Z,57.13
2022-11-20T00:43:49.514Z,57.19
2022-11-20T00:46:19.887Z,57.25
2022-11-20T00:48:47.959Z,57.27
2022-11-20T00:51:18.627Z,57.25
2022-11-20T00:53:46.805Z,57.36
2022-11-20T00:56:16.724Z,57.64
2022-11-20T00:58:47.405Z,57.51
2022-11-20T01:01:20.928Z,57.26
2022-11-20T01:03:50.970Z,57.45
2022-11-20T01:06:21.410Z,57.65
2022-11-20T01:08:50.548Z,57.74
2022-11-20T01:11:22.428Z,57.63
2022-11-20T01:13:51.809Z,57.68
2022-11-20T01:16:25.119Z,57.74
2022-11-20T01:18:55.180Z,57.72
2022-11-20T01:21:31.872Z,57.77
2022-11-20T01:24:00.082Z,57.80
2022-11-20T01:26:31.118Z,57.66
2022-11-20T01:28:59.218Z,57.78
2022-11-20T01:31:29.562Z,57.95
2022-11-20T01:33:59.068Z,57.83
2022-11-20T01:36:29.083Z,58.00
2022-11-20T01:39:01.680Z,58.13
2022-11-20T01:41:50.518Z,58.02
2022-11-20T01:44:21.800Z,58.12
2022-11-20T01:46:59.675Z,58.06
2022-11-20T01:49:30.403Z,58.15
2022-11-20T01:52:02.734Z,58.28
2022-11-20T01:54:37.341Z,58.44
2022-11-20T01:57:07.295Z,58.17
2022-11-20T01:59:35.256Z,58.45
2022-11-20T02:02:03.062Z,58.79
2022-11-20T02:04:31.191Z,58.76
2022-11-20T02:07:03.965Z,58.70
2022-11-20T02:09:31.913Z,58.77
2022-11-20T02:12:00.154Z,58.68
2022-11-20T02:14:29.254Z,58.64
2022-11-20T02:16:57.823Z,58.59
2022-11-20T02:19:28.665Z,58.62
2022-11-20T02:22:01.086Z,58.76
2022-11-20T02:24:29.090Z,58.62
2022-11-20T02:27:06.194Z,58.67
2022-11-20T02:29:49.204Z,58.64
2022-11-20T02:32:34.568Z,58.48
2022-11-20T02:35:31.804Z,58.53
2022-11-20T02:38:02.451Z,58.44
2022-11-20T02:40:30.295Z,58.64
2022-11-20T02:42:58.185Z,58.58
2022-11-20T02:45:26.548Z,58.65
2022-11-20T02:47:54.366Z,58.95
2022-11-20T02:50:22.179Z,59.17
2022-11-20T02:52:50.049Z,58.92
2022-11-20T02:55:17.867Z,58.76
2022-11-20T02:57:45.609Z,58.71
2022-11-20T03:00:14.022Z,58.55
2022-11-20T03:02:41.780Z,58.65
2022-11-20T03:05:09.536Z,59.19
2022-11-20T03:07:37.372Z,59.10
2022-11-20T03:10:06.069Z,59.17
2022-11-20T03:12:33.787Z,58.85
2022-11-20T03:15:01.691Z,58.86
2022-11-20T03:17:30.705Z,59.12
2022-11-20T03:19:58.741Z,59.00
2022-11-20T03:22:26.528Z,58.98
2022-11-20T03:24:54.408Z,59.02
2022-11-20T03:27:22.141Z,59.05
2022-11-20T03:29:49.904Z,58.84
2022-11-20T03:36:41.324Z,58.94
2022-11-20T03:39:09.446Z,59.02
2022-11-20T03:41:39.374Z,59.25
2022-11-20T03:44:09.241Z,59.45
2022-11-20T03:46:37.692Z,59.67
2022-11-20T03:49:05.904Z,59.68
2022-11-20T03:51:35.547Z,59.82
2022-11-20T03:54:07.864Z,60.19
2022-11-20T03:56:36.755Z,60.25
2022-11-20T03:59:05.318Z,59.96
2022-11-20T04:01:35.913Z,59.88
2022-11-20T04:04:03.864Z,59.88
2022-11-20T04:06:35.701Z,59.92
2022-11-20T04:09:03.712Z,59.79
2022-11-20T04:11:34.089Z,59.90
2022-11-20T04:14:04.358Z,60.18
2022-11-20T04:16:34.680Z,60.09
2022-11-20T04:19:05.312Z,60.12
2022-11-20T04:21:33.282Z,60.00
2022-11-20T04:24:01.128Z,59.89
2022-11-20T04:26:30.046Z,59.82
2022-11-20T04:28:58.914Z,59.51
2022-11-20T04:31:28.818Z,59.48
2022-11-20T04:34:00.705Z,59.35
2022-11-20T04:36:30.944Z,59.34
2022-11-20T04:39:00.854Z,58.84
2022-11-20T04:41:31.337Z,59.03
2022-11-20T04:44:03.456Z,59.02
2022-11-20T04:46:33.420Z,58.99
2022-11-20T04:49:01.323Z,59.01
2022-11-20T04:51:29.219Z,59.05
2022-11-20T04:53:57.103Z,58.88
2022-11-20T04:56:24.960Z,59.01
2022-11-20T04:58:52.771Z,58.93
2022-11-20T05:01:22.999Z,58.75
2022-11-20T05:03:51.395Z,58.69
2022-11-20T05:06:20.889Z,58.80
2022-11-20T05:08:48.816Z,58.91
2022-11-20T05:11:20.205Z,58.76
2022-11-20T05:13:48.963Z,58.65
2022-11-20T05:16:20.033Z,58.40
2022-11-20T05:18:48.280Z,58.58
2022-11-20T05:21:16.667Z,58.81
2022-11-20T05:23:45.361Z,58.68
2022-11-20T05:26:16.029Z,58.39
2022-11-20T05:28:44.260Z,58.51
2022-11-20T05:31:21.957Z,58.77
2022-11-20T05:33:53.001Z,58.57
2022-11-20T05:36:20.728Z,58.51
2022-11-20T05:38:50.901Z,58.50
2022-11-20T05:41:20.903Z,58.84
2022-11-20T05:43:49.823Z,58.92
2022-11-20T05:46:24.763Z,58.73
2022-11-20T05:48:56.591Z,58.56
2022-11-20T05:51:25.578Z,58.55
2022-11-20T05:53:53.381Z,58.46
2022-11-20T05:56:23.673Z,58.45
2022-11-20T05:58:54.431Z,58.06
2022-11-20T06:01:24.491Z,58.02
2022-11-20T06:03:53.998Z,58.45
2022-11-20T06:06:22.068Z,58.58
2022-11-20T06:08:49.975Z,58.50
2022-11-20T06:11:18.529Z,58.32
2022-11-20T06:13:47.216Z,58.60
2022-11-20T06:16:17.032Z,58.39
2022-11-20T06:18:44.995Z,58.62
2022-11-20T06:21:15.729Z,58.48
2022-11-20T06:23:43.764Z,58.31
2022-11-20T06:26:13.916Z,58.14
2022-11-20T06:28:41.751Z,58.40
2022-11-20T06:31:11.899Z,58.38
2022-11-20T06:33:40.532Z,58.18
2022-11-20T06:36:10.888Z,58.23
2022-11-20T06:38:39.885Z,58.41
2022-11-20T06:41:09.952Z,58.23
2022-11-20T06:43:37.778Z,58.18
2022-11-20T06:46:05.794Z,58.76
2022-11-20T06:48:33.931Z,58.71
2022-11-20T06:51:05.081Z,58.63
2022-11-20T06:53:33.348Z,59.64
2022-11-20T06:56:01.072Z,59.45
2022-11-20T06:58:30.165Z,59.60
2022-11-20T07:01:07.135Z,59.87
2022-11-20T07:03:35.161Z,59.78
2022-11-20T07:06:03.569Z,59.77
2022-11-20T07:08:32.219Z,60.03
2022-11-20T07:11:01.587Z,60.25
2022-11-20T07:13:29.668Z,60.65
2022-11-20T07:16:02.428Z,60.79
2022-11-20T07:18:30.404Z,60.45
2022-11-20T07:21:01.764Z,60.48
2022-11-20T07:23:29.736Z,60.31
2022-11-20T07:25:57.631Z,60.39
2022-11-20T07:28:25.492Z,60.26
2022-11-20T07:30:54.306Z,60.06
2022-11-20T07:33:22.287Z,60.30
2022-11-20T07:35:50.022Z,59.86
2022-11-20T07:38:17.937Z,59.94
2022-11-20T07:40:46.262Z,60.04
2022-11-20T07:43:14.461Z,59.99
2022-11-20T07:45:43.818Z,60.55
2022-11-20T07:48:11.939Z,60.58
2022-11-20T07:50:40.460Z,60.73
2022-11-20T07:53:11.563Z,60.61
2022-11-20T07:55:43.050Z,60.59
2022-11-20T07:58:11.253Z,60.75
2022-11-20T08:00:39.532Z,60.80
2022-11-20T08:03:07.695Z,60.58
2022-11-20T08:05:35.782Z,60.42
2022-11-20T08:08:04.509Z,59.91
2022-11-20T08:10:32.295Z,59.31
2022-11-20T08:13:18.667Z,58.97
2022-11-20T08:15:51.105Z,59.13
2022-11-20T08:18:34.666Z,59.72
2022-11-20T08:21:04.883Z,58.25
2022-11-20T08:23:32.750Z,57.22
2022-11-20T08:26:00.714Z,56.63
2022-11-20T08:28:28.496Z,56.22
2022-11-20T08:31:00.792Z,55.72
2022-11-20T08:33:28.873Z,55.40
2022-11-20T08:36:04.036Z,55.01
2022-11-20T08:38:32.193Z,54.43
2022-11-20T08:41:19.896Z,54.25
2022-11-20T08:43:48.037Z,54.28
2022-11-20T08:46:15.805Z,53.99
2022-11-20T08:48:44.241Z,53.59
2022-11-20T08:51:12.976Z,53.48
2022-11-20T08:53:41.670Z,52.50
2022-11-20T08:56:10.713Z,51.01
2022-11-20T08:59:10.030Z,50.75
2022-11-20T09:01:28.499Z,50.27
2022-11-20T09:03:57.980Z,49.80
2022-11-20T09:06:26.268Z,49.39
2022-11-20T09:08:54.649Z,48.84
2022-11-20T09:11:22.758Z,48.28
2022-11-20T09:13:50.787Z,47.61
2022-11-20T09:16:19.448Z,47.53
2022-11-20T09:18:47.912Z,48.18
2022-11-20T09:21:21.815Z,48.09
2022-11-20T09:23:49.665Z,47.31
2022-11-20T09:26:17.388Z,46.98
2022-11-20T09:28:45.280Z,47.03
2022-11-20T09:31:23.970Z,47.02
2022-11-20T09:33:52.065Z,46.28
2022-11-20T09:36:20.015Z,46.36
2022-11-20T09:38:48.448Z,46.26
2022-11-20T09:41:52.441Z,46.10
2022-11-20T09:44:54.542Z,47.58
2022-11-20T09:48:00.232Z,46.18
2022-11-20T09:50:50.503Z,46.82
2022-11-20T09:53:41.929Z,45.80
2022-11-20T09:56:12.125Z,45.17
2022-11-20T09:58:43.759Z,44.26
2022-11-20T10:01:32.945Z,43.07
2022-11-20T10:04:21.657Z,43.40
2022-11-20T10:07:10.569Z,42.94
2022-11-20T10:09:57.291Z,42.51
2022-11-20T10:12:43.900Z,42.23
2022-11-20T10:15:50.652Z,42.77
2022-11-20T10:18:40.908Z,41.54
2022-11-20T10:21:13.076Z,40.85
2022-11-20T10:23:52.974Z,40.19
2022-11-20T10:26:27.241Z,39.96
2022-11-20T10:29:11.629Z,39.95
2022-11-20T10:31:42.018Z,38.48
2022-11-20T10:34:31.460Z,39.79
2022-11-20T10:37:19.162Z,38.70
2022-11-20T10:40:08.928Z,38.19
2022-11-20T10:42:49.436Z,40.07
2022-11-20T10:45:25.438Z,39.09
2022-11-20T10:48:21.598Z,38.45
2022-11-20T10:51:28.049Z,38.20
2022-11-20T10:54:18.100Z,38.50
2022-11-20T10:56:52.174Z,38.65
2022-11-20T10:59:32.243Z,38.32
2022-11-20T11:02:03.232Z,37.38
2022-11-20T11:04:34.990Z,38.06
2022-11-20T11:07:10.671Z,37.30
2022-11-20T11:09:44.405Z,37.29
2022-11-20T11:12:12.644Z,37.73
2022-11-20T11:14:45.892Z,36.23
2022-11-20T11:21:32.643Z,36.11
2022-11-20T11:24:19.903Z,35.51
2022-11-20T11:27:00.158Z,35.30
2022-11-20T11:29:30.463Z,36.17
2022-11-20T11:32:10.164Z,36.07
2022-11-20T11:34:38.180Z,35.09
2022-11-20T11:37:16.774Z,34.66
2022-11-20T11:39:45.573Z,34.98
2022-11-20T11:42:18.227Z,34.83
2022-11-20T11:45:06.337Z,34.68
2022-11-20T11:47:40.146Z,34.38
2022-11-20T11:50:10.976Z,33.89
2022-11-20T11:52:45.256Z,34.35
2022-11-20T11:55:39.289Z,34.31
2022-11-20T11:58:16.720Z,34.10
2022-11-20T12:00:58.913Z,34.95
2022-11-20T12:03:44.871Z,34.78
2022-11-20T12:06:15.252Z,34.40
2022-11-20T12:09:06.031Z,34.22
2022-11-20T12:11:45.099Z,34.20
2022-11-20T12:14:20.765Z,33.84
2022-11-20T12:16:51.176Z,34.03
2022-11-20T12:19:22.272Z,34.21
2022-11-20T12:22:27.221Z,34.23
2022-11-20T12:24:57.731Z,34.41
2022-11-20T12:27:41.205Z,34.60
2022-11-20T12:30:15.967Z,34.74
2022-11-20T12:33:08.479Z,34.85
2022-11-20T12:35:44.969Z,34.50
2022-11-20T12:38:37.093Z,34.43
2022-11-20T12:41:42.187Z,35.73
2022-11-20T12:55:36.648Z,35.80
2022-11-20T12:58:32.629Z,34.99
2022-11-20T13:01:48.672Z,34.93
2022-11-20T13:04:22.366Z,34.66
2022-11-20T13:06:50.145Z,35.00
2022-11-20T13:09:22.814Z,34.59
2022-11-20T13:12:03.606Z,35.62
2022-11-20T13:15:00.627Z,35.07
2022-11-20T13:17:36.584Z,34.85
2022-11-20T13:20:07.331Z,34.14
2022-11-20T13:22:49.739Z,33.45
2022-11-20T13:25:25.468Z,33.41
2022-11-20T13:27:54.408Z,32.73
2022-11-20T13:30:29.417Z,33.80
2022-11-20T13:33:02.041Z,33.02
2022-11-20T13:35:35.214Z,31.98
2022-11-20T13:38:11.382Z,32.28
2022-11-20T13:41:00.415Z,31.96
2022-11-20T13:43:42.323Z,31.56
2022-11-20T13:46:10.901Z,31.36
2022-11-20T13:48:46.962Z,31.22
2022-11-20T13:51:35.940Z,31.44
2022-11-20T13:54:41.039Z,30.90
2022-11-20T13:57:27.061Z,30.19
2022-11-20T13:59:59.748Z,29.60
2022-11-20T14:02:30.510Z,29.15
2022-11-20T14:05:00.084Z,29.01
2022-11-20T14:07:41.087Z,28.04
2022-11-20T14:10:32.033Z,27.75
2022-11-20T14:13:11.989Z,28.25
2022-11-20T14:15:44.917Z,27.89
2022-11-20T14:18:22.705Z,27.73
2022-11-20T14:20:50.477Z,27.73
2022-11-20T14:23:30.209Z,27.86
2022-11-20T14:25:58.355Z,27.77
2022-11-20T14:28:31.418Z,27.71
2022-11-20T14:30:59.452Z,28.49
2022-11-20T14:33:27.587Z,28.66
2022-11-20T14:35:57.222Z,28.06
2022-11-20T14:38:29.635Z,28.28
2022-11-20T14:41:15.525Z,28.60
2022-11-20T14:43:47.065Z,29.56
2022-11-20T14:46:15.201Z,30.68
2022-11-20T14:48:48.560Z,31.75
2022-11-20T14:51:42.549Z,32.74
2022-11-20T14:54:16.324Z,33.70
2022-11-20T14:57:04.680Z,34.84
2022-11-20T14:59:34.426Z,35.59
2022-11-20T15:02:10.278Z,36.41
2022-11-20T15:04:49.469Z,37.35
2022-11-20T15:07:32.965Z,38.06
2022-11-20T15:10:03.787Z,39.03
2022-11-20T15:12:33.061Z,39.62
2022-11-20T15:15:02.506Z,40.59
2022-11-20T15:17:31.754Z,40.93
2022-11-20T15:20:00.995Z,41.26
2022-11-20T15:22:28.734Z,41.88
2022-11-20T15:24:56.525Z,42.45
2022-11-20T15:27:24.281Z,43.05
2022-11-20T15:29:52.145Z,43.42
2022-11-20T15:32:19.930Z,43.64
2022-11-20T15:34:47.884Z,43.63
2022-11-20T15:37:15.655Z,44.26
2022-11-20T15:39:43.429Z,44.52
2022-11-20T15:42:11.187Z,45.05
2022-11-20T15:44:38.955Z,45.50
2022-11-20T15:47:06.709Z,45.72
2022-11-20T15:49:34.451Z,46.13
2022-11-20T15:52:02.273Z,46.60
2022-11-20T15:54:30.067Z,46.87
2022-11-20T15:56:57.861Z,47.14
2022-11-20T15:59:25.578Z,47.36
2022-11-20T16:01:53.333Z,47.68
2022-11-20T16:04:21.316Z,48.05
2022-11-20T16:06:49.251Z,48.42
2022-11-20T16:09:17.015Z,48.71
2022-11-20T16:11:45.000Z,49.01
2022-11-20T16:14:31.353Z,49.14
2022-11-20T16:16:59.101Z,49.05
2022-11-20T16:19:26.839Z,49.31
2022-11-20T16:21:59.674Z,49.61
2022-11-20T16:24:31.065Z,49.67
2022-11-20T16:26:59.118Z,49.83
2022-11-20T16:29:27.156Z,50.35
2022-11-20T16:31:58.232Z,50.66
2022-11-20T16:34:27.234Z,50.69
2022-11-20T16:36:55.527Z,51.13
2022-11-20T16:39:24.068Z,51.38
2022-11-20T16:41:52.275Z,51.53
2022-11-20T16:44:21.136Z,51.55
2022-11-20T16:46:51.585Z,51.76
2022-11-20T16:49:19.549Z,52.26
2022-11-20T16:51:47.517Z,52.53
2022-11-20T16:54:20.559Z,52.51
2022-11-20T16:56:51.045Z,52.31
2022-11-20T16:59:19.217Z,52.44
2022-11-20T17:01:47.003Z,52.70
2022-11-20T17:04:15.013Z,52.51
2022-11-20T17:06:47.820Z,52.67
2022-11-20T17:09:15.661Z,52.61
2022-11-20T17:11:46.055Z,52.82
2022-11-20T17:14:13.858Z,52.93
2022-11-20T17:16:41.856Z,52.85
2022-11-20T17:19:09.809Z,53.00
2022-11-20T17:21:46.614Z,53.09
2022-11-20T17:24:16.253Z,52.79
2022-11-20T17:26:44.920Z,52.54
2022-11-20T17:29:15.376Z,52.87
2022-11-20T17:31:44.066Z,53.34
2022-11-20T17:34:13.741Z,53.51
2022-11-20T17:36:45.765Z,53.91
2022-11-20T17:39:15.046Z,54.37
2022-11-20T17:41:43.241Z,54.00
2022-11-20T17:44:11.824Z,54.42
2022-11-20T17:46:39.756Z,54.82
2022-11-20T17:49:07.620Z,55.10
2022-11-20T17:51:35.550Z,55.25
2022-11-20T17:54:05.195Z,55.10
2022-11-20T17:56:53.472Z,55.66
2022-11-20T17:59:21.770Z,55.94
2022-11-20T18:01:49.859Z,56.16
2022-11-20T18:04:18.058Z,56.14
2022-11-20T18:06:46.303Z,56.09
2022-11-20T18:09:14.035Z,56.17
2022-11-20T18:11:45.747Z,55.98
2022-11-20T18:14:36.548Z,56.03
2022-11-20T18:17:10.948Z,55.89
2022-11-20T18:20:00.674Z,56.06
2022-11-20T18:22:32.675Z,56.07
2022-11-20T18:25:00.997Z,56.29
2022-11-20T18:27:29.112Z,56.57
2022-11-20T18:29:56.866Z,56.45
2022-11-20T18:32:24.646Z,56.66
2022-11-20T18:34:52.381Z,56.87
2022-11-20T18:37:20.212Z,56.84
2022-11-20T18:39:50.292Z,56.87
2022-11-20T18:42:36.732Z,56.95
2022-11-20T18:45:05.601Z,57.15
2022-11-20T18:47:37.757Z,57.08
2022-11-20T18:50:07.057Z,57.13
2022-11-20T18:52:39.372Z,57.20
2022-11-20T18:55:07.413Z,57.29
2022-11-20T18:57:35.231Z,56.82
2022-11-20T19:00:08.931Z,57.17
2022-11-20T19:02:42.074Z,57.09
2022-11-20T19:05:12.012Z,57.18
2022-11-20T19:07:40.082Z,57.42
2022-11-20T19:10:08.659Z,56.99
2022-11-20T19:12:36.419Z,56.88
2022-11-20T19:15:05.211Z,56.75
2022-11-20T19:17:33.781Z,56.72
2022-11-20T19:20:02.053Z,56.47
2022-11-20T19:22:29.889Z,56.34
2022-11-20T19:24:57.614Z,56.33
2022-11-20T19:27:25.405Z,56.28
2022-11-20T19:29:53.149Z,56.41
2022-11-20T19:32:21.087Z,56.26
2022-11-20T19:34:49.281Z,56.11
2022-11-20T19:37:17.048Z,56.06
2022-11-20T19:39:44.769Z,56.13
2022-11-20T19:42:12.600Z,56.08
2022-11-20T19:44:40.835Z,55.99
2022-11-20T19:47:14.016Z,56.12
2022-11-20T19:49:42.531Z,56.27
2022-11-20T19:52:10.351Z,56.33
2022-11-20T19:54:38.193Z,56.37
2022-11-20T19:57:05.978Z,56.98
2022-11-20T19:59:33.702Z,57.34
2022-11-20T20:02:03.466Z,57.44
2022-11-20T20:04:31.729Z,57.36
2022-11-20T20:06:59.584Z,57.36
2022-11-20T20:09:27.731Z,57.38
2022-11-20T20:11:55.445Z,57.33
2022-11-20T20:14:23.232Z,57.41
2022-11-20T20:16:51.476Z,57.48
2022-11-20T20:19:19.391Z,57.66
2022-11-20T20:21:48.095Z,57.60
2022-11-20T20:24:16.166Z,57.53
2022-11-20T20:26:43.988Z,57.51
2022-11-20T20:29:11.940Z,57.54
2022-11-20T20:31:40.972Z,57.63
2022-11-20T20:34:08.834Z,57.54
2022-11-20T20:36:36.640Z,57.70
2022-11-20T20:39:04.553Z,57.64
2022-11-20T20:41:32.860Z,57.59
2022-11-20T20:44:20.566Z,57.46
2022-11-20T20:46:52.299Z,57.37
2022-11-20T20:49:20.204Z,57.36
2022-11-20T20:51:47.945Z,57.41
2022-11-20T20:54:15.705Z,57.48
2022-11-20T20:56:43.479Z,57.47
2022-11-20T20:59:11.187Z,57.44
2022-11-20T21:01:39.069Z,57.51
2022-11-20T21:04:06.996Z,57.57
2022-11-20T21:06:34.721Z,57.57
2022-11-20T21:09:02.458Z,57.53
2022-11-20T21:11:30.185Z,57.65
2022-11-20T21:13:58.171Z,57.57
2022-11-20T21:16:26.364Z,57.77
2022-11-20T21:18:54.160Z,58.07
2022-11-20T21:21:40.594Z,57.99
2022-11-20T21:24:08.819Z,57.86
2022-11-20T21:26:36.575Z,57.94
2022-11-20T21:29:04.405Z,57.93
2022-11-20T21:31:32.209Z,57.83
2022-11-20T21:34:01.431Z,57.99
2022-11-20T21:36:31.036Z,58.09
2022-11-20T21:39:02.023Z,58.45
2022-11-20T21:41:30.808Z,58.39
2022-11-20T21:46:48.451Z,57.97
2022-11-20T21:49:18.212Z,58.33
2022-11-20T21:51:46.039Z,58.22
2022-11-20T21:54:13.951Z,58.27
2022-11-20T21:56:41.680Z,58.74
2022-11-20T21:59:12.858Z,58.89
2022-11-20T22:01:41.646Z,59.14
2022-11-20T22:04:13.469Z,58.89
2022-11-20T22:06:41.242Z,58.81
2022-11-20T22:09:09.967Z,58.95
2022-11-20T22:11:37.761Z,59.01
2022-11-20T22:14:20.951Z,59.03
2022-11-20T22:16:50.612Z,58.91
2022-11-20T22:19:20.564Z,58.88
2022-11-20T22:21:50.546Z,58.82
2022-11-20T22:24:19.796Z,58.76
2022-11-20T22:26:48.250Z,58.69
2022-11-20T22:29:23.859Z,58.65
2022-11-20T22:31:52.966Z,58.66
2022-11-20T22:34:21.187Z,58.59
2022-11-20T22:36:49.193Z,58.48
2022-11-20T22:39:20.025Z,58.38
2022-11-20T22:41:47.757Z,58.54
2022-11-20T22:44:16.384Z,58.40
2022-11-20T22:46:44.148Z,58.25
2022-11-20T22:49:11.931Z,58.23
2022-11-20T22:51:40.981Z,58.12
2022-11-20T22:54:13.524Z,58.18
2022-11-20T22:56:41.762Z,58.22
2022-11-20T22:59:09.621Z,58.15
2022-11-20T23:01:37.748Z,58.07
2022-11-20T23:04:08.118Z,58.27
2022-11-20T23:06:35.906Z,58.38
2022-11-20T23:09:05.104Z,58.14
2022-11-20T23:11:33.449Z,58.03
2022-11-20T23:14:04.282Z,58.09
2022-11-20T23:16:33.925Z,58.08
2022-11-20T23:19:10.461Z,58.05
2022-11-20T23:21:39.511Z,58.06
2022-11-20T23:24:08.693Z,58.21
2022-11-20T23:26:38.986Z,58.40
2022-11-20T23:29:07.540Z,58.57
2022-11-20T23:31:35.946Z,58.48
2022-11-20T23:34:04.290Z,58.49
2022-11-20T23:36:32.549Z,58.46
2022-11-20T23:39:00.347Z,58.45
2022-11-20T23:41:28.321Z,58.99
2022-11-20T23:43:56.114Z,58.80
2022-11-20T23:46:23.875Z,58.50
2022-11-20T23:48:51.710Z,58.58
2022-11-20T23:51:19.428Z,58.45
2022-11-20T23:53:47.176Z,58.39
2022-11-20T23:56:17.036Z,58.53
2022-11-20T23:58:44.806Z,58.47
